Time;durP1;ratioP1;P1;durP2;ratioP2;P2;SDS_P1;SDS_P2;PMS_P1;PMS_P2;Temp;Humidity;BMP_temperature;BMP_pressure;BME280_temperature;BME280_humidity;BME280_pressure;Samples;Min_cycle;Max_cycle;Signal;HPM_P1;HPM_P2
2021/12/31 00:01:59;;;;;;;9.43;2.53;;;;;;;12.78;86.76;101617.75;5034698;28;20033;-42
2021/12/31 00:04:25;;;;;;;13.45;2.38;;;;;;;12.80;86.67;101615.72;5035042;28;20048;-42
2021/12/31 00:06:50;;;;;;;11.90;2.40;;;;;;;12.81;86.88;101603.88;5034194;28;20048;-44
2021/12/31 00:09:15;;;;;;;9.52;2.58;;;;;;;12.85;86.62;101605.22;5033988;28;20021;-42
2021/12/31 00:11:41;;;;;;;12.18;2.63;;;;;;;12.91;86.30;101620.69;5037856;28;20491;-42
2021/12/31 00:14:07;;;;;;;14.77;2.70;;;;;;;12.93;86.30;101615.97;5042356;28;20075;-42
2021/12/31 00:16:32;;;;;;;10.82;2.45;;;;;;;12.96;85.94;101598.56;5042475;28;20120;-42
2021/12/31 00:18:57;;;;;;;12.57;2.10;;;;;;;13.01;85.58;101611.53;5033940;28;20036;-42
2021/12/31 00:21:23;;;;;;;15.75;2.85;;;;;;;12.95;85.71;101603.13;5032707;28;20120;-42
2021/12/31 00:23:48;;;;;;;7.00;2.45;;;;;;;12.92;86.19;101598.06;5039602;28;20029;-42
2021/12/31 00:26:13;;;;;;;11.57;2.83;;;;;;;12.88;86.34;101615.66;5047109;28;20084;-41
2021/12/31 00:28:39;;;;;;;11.32;2.50;;;;;;;12.88;86.39;101602.16;5033866;28;20481;-42
2021/12/31 00:31:04;;;;;;;9.77;2.50;;;;;;;12.81;86.66;101593.06;5043780;28;20102;-43
2021/12/31 00:33:29;;;;;;;12.38;2.40;;;;;;;12.82;86.42;101597.47;5033748;28;20133;-42
2021/12/31 00:35:55;;;;;;;11.00;2.90;;;;;;;12.76;86.89;101608.97;5033824;28;20397;-42
2021/12/31 00:38:20;;;;;;;13.38;2.88;;;;;;;12.77;87.00;101599.88;5033793;28;20121;-42
2021/12/31 00:40:46;;;;;;;12.95;2.78;;;;;;;12.75;87.29;101596.50;5033616;28;20108;-43
2021/12/31 00:43:12;;;;;;;8.30;2.60;;;;;;;12.73;87.76;101606.63;5034157;28;20478;-42
2021/12/31 00:45:40;;;;;;;8.13;2.55;;;;;;;12.71;87.99;101603.25;5046295;28;20032;-43
2021/12/31 00:48:10;;;;;;;12.80;3.78;;;;;;;12.70;88.38;101613.22;5053527;28;20052;-42
2021/12/31 00:50:36;;;;;;;9.68;3.08;;;;;;;12.69;89.06;101610.69;5053531;28;20108;-42
2021/12/31 00:53:02;;;;;;;8.07;2.58;;;;;;;12.65;89.34;101617.47;5035889;28;20484;-42
2021/12/31 00:55:27;;;;;;;12.02;2.97;;;;;;;12.61;90.10;101608.91;5032277;28;20021;-42
2021/12/31 00:57:53;;;;;;;9.38;2.70;;;;;;;12.56;90.79;101621.22;5039967;28;20044;-42
2021/12/31 01:00:18;;;;;;;19.35;3.28;;;;;;;12.58;90.37;101616.50;5053549;28;20079;-42
2021/12/31 01:02:46;;;;;;;12.50;3.20;;;;;;;12.57;90.69;101614.81;5038467;28;20084;-42
2021/12/31 01:05:12;;;;;;;19.40;3.15;;;;;;;12.54;91.09;101607.06;5033286;28;20021;-42
2021/12/31 01:07:37;;;;;;;13.27;3.63;;;;;;;12.53;90.76;101608.91;5034733;28;20056;-42
2021/12/31 01:10:04;;;;;;;7.50;3.08;;;;;;;12.56;90.48;101615.81;5053214;28;20464;-42
2021/12/31 01:12:30;;;;;;;13.97;2.93;;;;;;;12.58;90.16;101627.28;5039730;28;20374;-42
2021/12/31 01:15:00;;;;;;;16.23;3.95;;;;;;;12.60;90.00;101607.19;5036415;28;20179;-42
2021/12/31 01:17:44;;;;;;;13.70;3.25;;;;;;;12.62;89.71;101613.28;5033048;28;20397;-42
2021/12/31 01:20:11;;;;;;;8.48;2.88;;;;;;;12.66;89.46;101613.75;5034693;28;20048;-42
2021/12/31 01:22:36;;;;;;;10.77;3.17;;;;;;;12.63;89.49;101614.09;5049863;28;20020;-42
2021/12/31 01:25:04;;;;;;;8.82;2.83;;;;;;;12.59;89.79;101616.31;5072772;28;20025;-42
2021/12/31 01:27:30;;;;;;;12.80;3.58;;;;;;;12.63;89.38;101606.00;5072447;28;20036;-42
2021/12/31 01:29:56;;;;;;;9.52;3.05;;;;;;;12.59;89.68;101615.50;5049258;28;20485;-42
2021/12/31 01:32:21;;;;;;;9.65;3.28;;;;;;;12.56;89.56;101626.63;5043852;28;20095;-42
2021/12/31 01:34:46;;;;;;;11.57;2.90;;;;;;;12.54;89.78;101620.59;5039022;28;20037;-42
2021/12/31 01:37:12;;;;;;;10.40;3.13;;;;;;;12.51;89.90;101633.41;5032492;28;20474;-42
2021/12/31 01:39:38;;;;;;;10.45;3.90;;;;;;;12.51;89.75;101628.00;5032562;28;20056;-42
2021/12/31 01:42:07;;;;;;;7.82;2.75;;;;;;;12.51;89.80;101621.78;5041668;28;20036;-42
2021/12/31 01:44:40;;;;;;;13.85;3.55;;;;;;;12.50;90.02;101615.50;5049161;28;20051;-42
2021/12/31 01:47:11;;;;;;;10.40;3.20;;;;;;;12.51;89.77;101616.38;5037107;28;20029;-42
2021/12/31 01:49:39;;;;;;;15.93;3.28;;;;;;;12.49;89.97;101618.41;5052757;28;20032;-42
2021/12/31 01:52:07;;;;;;;19.00;3.53;;;;;;;12.47;89.73;101613.16;5052299;28;20028;-42
2021/12/31 01:54:34;;;;;;;14.48;3.22;;;;;;;12.46;89.84;101610.66;5052535;28;20087;-42
2021/12/31 01:57:04;;;;;;;12.35;3.15;;;;;;;12.48;89.84;101611.28;5037693;28;20045;-42
2021/12/31 01:59:30;;;;;;;9.43;2.75;;;;;;;12.48;89.61;101612.16;5051231;28;20124;-42
2021/12/31 02:01:56;;;;;;;11.05;2.90;;;;;;;12.46;89.65;101608.78;5046223;28;20112;-42
2021/12/31 02:04:21;;;;;;;10.80;3.40;;;;;;;12.48;89.60;101614.00;5031215;28;20124;-42
2021/12/31 02:06:46;;;;;;;10.50;3.33;;;;;;;12.47;89.90;101609.63;5032139;28;20021;-42
2021/12/31 02:09:13;;;;;;;9.25;3.10;;;;;;;12.45;89.65;101609.81;5040419;28;20033;-41
2021/12/31 02:11:39;;;;;;;8.55;3.30;;;;;;;12.47;89.48;101613.16;5047174;28;20021;-42
2021/12/31 02:14:04;;;;;;;9.70;3.08;;;;;;;12.49;89.37;101619.22;5050994;28;20025;-42
2021/12/31 02:16:31;;;;;;;10.23;3.65;;;;;;;12.50;89.62;101617.38;5044477;28;20072;-43
2021/12/31 02:19:13;;;;;;;13.27;3.20;;;;;;;12.52;89.46;101616.19;5050819;28;20029;-42
2021/12/31 02:21:42;;;;;;;8.38;2.78;;;;;;;12.56;89.27;101619.38;5047031;28;20477;-42
2021/12/31 02:24:07;;;;;;;10.85;3.03;;;;;;;12.58;89.13;101619.19;5032834;28;20040;-42
2021/12/31 02:26:33;;;;;;;8.38;2.78;;;;;;;12.57;89.22;101621.06;5033169;28;20022;-42
2021/12/31 02:28:58;;;;;;;12.57;3.10;;;;;;;12.55;89.48;101612.28;5049625;28;20108;-42
2021/12/31 02:31:23;;;;;;;7.32;2.92;;;;;;;12.55;89.23;101606.03;5052056;28;20108;-42
2021/12/31 02:33:50;;;;;;;17.45;3.10;;;;;;;12.52;89.38;101610.78;5047176;28;20056;-42
2021/12/31 02:36:16;;;;;;;10.23;3.30;;;;;;;12.51;89.70;101611.81;5052078;28;20053;-43
2021/12/31 02:38:43;;;;;;;9.45;3.05;;;;;;;12.50;89.41;101615.50;5034948;28;20433;-42
2021/12/31 02:41:09;;;;;;;14.45;3.65;;;;;;;12.49;89.54;101616.53;5035932;28;20029;-42
2021/12/31 02:43:34;;;;;;;11.95;3.28;;;;;;;12.51;89.37;101627.16;5035829;28;20044;-42
2021/12/31 02:46:00;;;;;;;8.50;2.88;;;;;;;12.56;89.01;101626.63;5034511;28;20053;-43
2021/12/31 02:48:27;;;;;;;14.18;3.15;;;;;;;12.57;88.99;101607.56;5046618;28;20028;-42
2021/12/31 02:50:54;;;;;;;10.10;2.83;;;;;;;12.55;88.96;101614.97;5055758;28;20048;-41
2021/12/31 02:53:26;;;;;;;8.27;2.72;;;;;;;12.55;89.13;101611.44;5054441;28;20052;-42
2021/12/31 02:56:00;;;;;;;12.93;2.63;;;;;;;12.57;88.97;101609.41;5055627;28;20025;-42
2021/12/31 02:58:25;;;;;;;11.15;2.40;;;;;;;12.59;88.80;101607.41;5042333;28;20447;-42
2021/12/31 03:00:50;;;;;;;11.00;2.70;;;;;;;12.57;88.80;101606.72;5036233;28;20108;-42
2021/12/31 03:03:17;;;;;;;12.13;2.83;;;;;;;12.56;88.77;101613.13;5036103;28;20378;-42
2021/12/31 03:05:44;;;;;;;11.75;2.70;;;;;;;12.57;88.62;101598.63;5048759;28;20032;-42
2021/12/31 03:08:11;;;;;;;15.73;2.53;;;;;;;12.58;88.74;101594.88;5049357;28;20037;-42
2021/12/31 03:10:37;;;;;;;9.93;2.53;;;;;;;12.56;88.91;101591.53;5035632;28;20107;-42
2021/12/31 03:13:02;;;;;;;12.27;2.67;;;;;;;12.55;88.93;101584.44;5035451;28;20104;-42
2021/12/31 03:15:28;;;;;;;8.90;3.13;;;;;;;12.49;89.12;101592.22;5035278;28;20044;-42
2021/12/31 03:17:57;;;;;;;12.80;2.75;;;;;;;12.48;89.07;101587.00;5036179;28;20025;-43
2021/12/31 03:20:36;;;;;;;7.65;2.88;;;;;;;12.47;89.18;101583.47;5038290;28;20054;-42
2021/12/31 03:23:02;;;;;;;12.18;2.88;;;;;;;12.45;88.98;101574.72;5035194;28;20036;-42
2021/12/31 03:25:27;;;;;;;13.15;2.97;;;;;;;12.46;89.23;101580.97;5035074;28;20026;-42
2021/12/31 03:27:53;;;;;;;10.57;3.10;;;;;;;12.45;89.24;101574.72;5044291;28;20507;-42
2021/12/31 03:30:19;;;;;;;9.65;2.70;;;;;;;12.43;89.07;101582.16;5053844;28;20495;-42
2021/12/31 03:32:44;;;;;;;12.63;3.00;;;;;;;12.45;88.91;101580.13;5055285;28;20017;-42
2021/12/31 03:35:10;;;;;;;9.35;3.40;;;;;;;12.46;88.71;101580.97;5054675;28;20606;-42
2021/12/31 03:37:35;;;;;;;7.10;2.60;;;;;;;12.49;88.74;101580.59;5045343;28;20033;-42
2021/12/31 03:40:00;;;;;;;9.30;2.58;;;;;;;12.46;88.79;101581.78;5054922;28;20021;-42
2021/12/31 03:42:26;;;;;;;14.90;3.13;;;;;;;12.48;88.55;101581.59;5054844;28;20465;-42
2021/12/31 03:44:51;;;;;;;7.15;2.97;;;;;;;12.47;88.77;101579.94;5054817;28;20059;-42
2021/12/31 03:47:16;;;;;;;13.38;3.30;;;;;;;12.46;88.68;101587.19;5048098;28;20037;-42
2021/12/31 03:49:42;;;;;;;8.55;2.83;;;;;;;12.46;88.34;101592.59;5034465;28;20029;-42
2021/12/31 03:52:07;;;;;;;14.07;3.00;;;;;;;12.48;88.32;101595.09;5038363;28;20049;-42
2021/12/31 03:54:33;;;;;;;6.90;2.30;;;;;;;12.46;88.18;101598.00;5034751;28;20025;-42
2021/12/31 03:56:58;;;;;;;7.20;2.60;;;;;;;12.48;88.11;101598.66;5035047;28;20402;-42
2021/12/31 03:59:23;;;;;;;7.95;2.72;;;;;;;12.47;87.82;101599.66;5054570;28;20102;-42
2021/12/31 04:01:48;;;;;;;10.48;3.10;;;;;;;12.47;87.97;101593.44;5054466;28;20079;-42
2021/12/31 04:04:14;;;;;;;9.48;3.03;;;;;;;12.47;88.11;101591.56;5054415;28;20075;-42
2021/12/31 04:06:40;;;;;;;7.85;2.72;;;;;;;12.50;87.58;101590.38;5054249;28;20020;-42
2021/12/31 04:09:06;;;;;;;11.98;2.55;;;;;;;12.52;87.10;101591.88;5039329;28;20036;-43
2021/12/31 04:11:32;;;;;;;7.22;2.30;;;;;;;12.55;86.92;101595.25;5034184;28;20034;-42
2021/12/31 04:13:57;;;;;;;9.85;2.97;;;;;;;12.57;86.49;101579.72;5034141;28;20025;-42
2021/12/31 04:16:23;;;;;;;8.57;2.20;;;;;;;12.60;86.54;101582.06;5043213;28;20028;-42
2021/12/31 04:18:48;;;;;;;10.13;2.50;;;;;;;12.54;86.93;101562.00;5035103;28;20457;-42
2021/12/31 04:21:16;;;;;;;8.13;2.28;;;;;;;12.52;86.50;101589.19;5034164;28;20022;-42
2021/12/31 04:23:52;;;;;;;11.40;2.20;;;;;;;12.54;86.43;101563.88;5037269;28;20056;-42
2021/12/31 04:26:17;;;;;;;13.88;2.58;;;;;;;12.51;86.36;101563.19;5052185;28;20453;-42
2021/12/31 04:28:43;;;;;;;12.52;2.67;;;;;;;12.45;86.36;101552.25;5069916;28;20052;-42
2021/12/31 04:31:08;;;;;;;10.77;2.55;;;;;;;12.43;86.14;101560.56;5072713;28;20088;-42
2021/12/31 04:33:34;;;;;;;7.38;2.33;;;;;;;12.46;86.00;101565.59;5073867;28;20103;-43
2021/12/31 04:35:59;;;;;;;9.35;2.50;;;;;;;12.43;86.00;101555.16;5060276;28;20029;-42
2021/12/31 04:38:24;;;;;;;9.13;2.40;;;;;;;12.39;86.28;101561.91;5048401;28;20028;-42
2021/12/31 04:40:50;;;;;;;6.63;2.25;;;;;;;12.32;86.54;101560.91;5037860;28;20033;-41
2021/12/31 04:43:15;;;;;;;5.63;2.47;;;;;;;12.31;86.42;101551.16;5033816;28;20041;-41
2021/12/31 04:45:41;;;;;;;10.95;2.67;;;;;;;12.29;86.35;101548.63;5033946;28;20026;-42
2021/12/31 04:48:06;;;;;;;7.97;2.10;;;;;;;12.32;86.19;101541.19;5046235;28;20104;-42
2021/12/31 04:50:32;;;;;;;7.75;2.17;;;;;;;12.34;86.02;101537.31;5052406;28;20033;-41
2021/12/31 04:52:57;;;;;;;7.60;2.10;;;;;;;12.30;86.16;101530.59;5053167;28;20024;-42
2021/12/31 04:55:23;;;;;;;8.55;2.20;;;;;;;12.25;86.42;101520.31;5049439;28;20075;-42
2021/12/31 04:57:49;;;;;;;6.88;2.15;;;;;;;12.20;86.74;101527.25;5043019;28;20124;-42
2021/12/31 05:00:16;;;;;;;8.65;2.38;;;;;;;12.19;86.65;101530.97;5052307;28;20047;-42
2021/12/31 05:02:42;;;;;;;4.72;2.05;;;;;;;12.18;86.37;101523.91;5032618;28;20029;-42
2021/12/31 05:05:08;;;;;;;6.82;2.63;;;;;;;12.16;86.43;101520.53;5033276;28;20021;-41
2021/12/31 05:07:33;;;;;;;14.75;2.80;;;;;;;12.15;86.44;101524.25;5040782;28;20020;-42
2021/12/31 05:09:58;;;;;;;8.60;2.30;;;;;;;12.12;86.43;101538.09;5053025;28;20064;-42
2021/12/31 05:12:30;;;;;;;9.32;2.78;;;;;;;12.13;86.45;101550.56;5039448;28;20025;-41
2021/12/31 05:14:55;;;;;;;8.00;2.88;;;;;;;12.12;86.46;101543.50;5033253;28;20112;-41
2021/12/31 05:17:21;;;;;;;8.65;2.45;;;;;;;12.08;86.49;101551.06;5039310;28;20107;-41
2021/12/31 05:19:47;;;;;;;8.57;2.10;;;;;;;12.08;86.38;101556.47;5052951;28;20067;-41
2021/12/31 05:22:12;;;;;;;7.53;2.10;;;;;;;12.07;86.42;101557.50;5052900;28;20032;-41
2021/12/31 05:24:38;;;;;;;6.90;2.30;;;;;;;12.05;86.38;101556.81;5053414;28;20075;-41
2021/12/31 05:27:04;;;;;;;5.70;2.47;;;;;;;12.03;86.87;101556.16;5048610;28;20056;-42
2021/12/31 05:29:29;;;;;;;7.40;2.30;;;;;;;12.04;86.61;101544.34;5033135;28;20029;-42
2021/12/31 05:31:54;;;;;;;9.00;2.47;;;;;;;12.05;86.35;101543.34;5031605;28;20018;-42
2021/12/31 05:34:20;;;;;;;9.05;2.70;;;;;;;12.06;86.27;101553.13;5032722;28;20029;-41
2021/12/31 05:36:45;;;;;;;10.50;2.70;;;;;;;12.03;86.39;101543.53;5042949;28;20068;-42
2021/12/31 05:39:13;;;;;;;6.38;2.58;;;;;;;12.06;86.17;101548.56;5032561;28;20029;-41
2021/12/31 05:41:39;;;;;;;8.48;2.25;;;;;;;12.07;85.94;101544.84;5032963;28;20030;-42
2021/12/31 05:44:05;;;;;;;9.07;2.17;;;;;;;12.11;86.01;101547.19;5036021;28;20476;-41
2021/12/31 05:46:30;;;;;;;5.93;1.88;;;;;;;12.09;86.00;101547.38;5044265;28;20164;-42
2021/12/31 05:48:56;;;;;;;10.68;2.47;;;;;;;12.12;85.76;101551.59;5051258;28;20032;-42
2021/12/31 05:51:21;;;;;;;9.50;3.30;;;;;;;12.08;85.94;101551.06;5052236;28;20107;-42
2021/12/31 05:53:47;;;;;;;8.45;2.70;;;;;;;12.10;85.72;101559.00;5050469;28;20025;-42
2021/12/31 05:56:12;;;;;;;6.38;2.03;;;;;;;12.08;85.85;101557.34;5032243;28;20507;-41
2021/12/31 05:58:37;;;;;;;6.07;2.40;;;;;;;12.07;85.79;101541.31;5047087;28;20021;-41
2021/12/31 06:01:02;;;;;;;6.80;1.80;;;;;;;12.02;85.93;101544.53;5032538;28;20374;-41
2021/12/31 06:03:28;;;;;;;7.60;2.08;;;;;;;12.01;85.85;101550.13;5032272;28;20521;-41
2021/12/31 06:05:53;;;;;;;6.75;2.13;;;;;;;11.97;85.94;101532.56;5032060;28;20453;-42
2021/12/31 06:08:18;;;;;;;8.30;2.90;;;;;;;11.91;86.07;101520.63;5042470;28;20037;-41
2021/12/31 06:10:44;;;;;;;8.13;2.38;;;;;;;11.89;86.37;101514.56;5052120;28;20036;-42
2021/12/31 06:13:11;;;;;;;9.93;2.28;;;;;;;11.91;86.12;101514.41;5053000;28;20029;-41
2021/12/31 06:15:36;;;;;;;8.55;3.10;;;;;;;11.86;86.28;101509.53;5047142;28;20040;-42
2021/12/31 06:18:02;;;;;;;13.90;3.22;;;;;;;11.83;86.36;101516.06;5048781;28;20029;-42
2021/12/31 06:20:30;;;;;;;7.80;3.00;;;;;;;11.83;86.26;101507.97;5055997;28;20021;-41
2021/12/31 06:22:59;;;;;;;5.47;2.35;;;;;;;11.81;86.40;101488.44;5056229;28;20051;-42
2021/12/31 06:25:26;;;;;;;7.68;2.65;;;;;;;11.79;86.46;101489.63;5053769;28;20059;-41
2021/12/31 06:27:51;;;;;;;7.45;2.40;;;;;;;11.75;86.59;101485.59;5053093;28;20396;-42
2021/12/31 06:30:16;;;;;;;6.82;2.83;;;;;;;11.74;86.66;101478.50;5048962;28;20029;-42
2021/12/31 06:32:42;;;;;;;6.45;2.45;;;;;;;11.73;86.66;101476.84;5055671;28;20025;-42
2021/12/31 06:35:07;;;;;;;5.47;2.38;;;;;;;11.72;86.68;101483.25;5055896;28;20100;-42
2021/12/31 06:37:33;;;;;;;5.15;2.10;;;;;;;11.71;86.46;101492.34;5053841;28;20044;-42
2021/12/31 06:40:03;;;;;;;4.80;2.30;;;;;;;11.70;86.48;101494.22;5049375;28;20060;-41
2021/12/31 06:42:28;;;;;;;5.63;2.25;;;;;;;11.68;86.79;101498.09;5040078;28;20479;-43
2021/12/31 06:44:54;;;;;;;7.68;2.50;;;;;;;11.64;86.85;101501.13;5039633;28;20104;-41
2021/12/31 06:47:19;;;;;;;7.13;2.70;;;;;;;11.61;87.24;101509.56;5045738;28;20064;-41
2021/12/31 06:49:44;;;;;;;7.47;2.22;;;;;;;11.60;87.03;101505.19;5043078;28;20030;-41
2021/12/31 06:52:10;;;;;;;5.18;2.40;;;;;;;11.57;87.03;101510.09;5040204;28;20366;-41
2021/12/31 06:54:36;;;;;;;8.48;2.30;;;;;;;11.57;87.04;101505.53;5045446;28;20029;-42
2021/12/31 06:57:03;;;;;;;6.57;2.60;;;;;;;11.56;87.20;101497.63;5047959;28;20049;-41
2021/12/31 06:59:29;;;;;;;13.23;2.67;;;;;;;11.56;86.97;101503.03;5052279;28;20087;-43
2021/12/31 07:01:55;;;;;;;8.38;2.63;;;;;;;11.55;87.03;101512.94;5047144;28;20308;-41
2021/12/31 07:04:20;;;;;;;7.30;2.47;;;;;;;11.53;87.16;101512.28;5042461;28;20033;-41
2021/12/31 07:06:45;;;;;;;6.90;2.42;;;;;;;11.54;87.07;101527.44;5035773;28;20069;-41
2021/12/31 07:09:11;;;;;;;8.32;2.67;;;;;;;11.54;86.95;101523.91;5047632;28;20033;-42
2021/12/31 07:11:36;;;;;;;7.65;2.80;;;;;;;11.55;87.03;101553.38;5041673;28;20029;-41
2021/12/31 07:14:02;;;;;;;7.35;2.42;;;;;;;11.51;87.09;101527.78;5032370;28;20025;-41
2021/12/31 07:16:27;;;;;;;5.55;2.50;;;;;;;11.53;87.04;101531.16;5036690;28;20508;-41
2021/12/31 07:18:52;;;;;;;9.23;2.70;;;;;;;11.50;87.40;101526.09;5037221;28;20464;-42
2021/12/31 07:21:18;;;;;;;7.38;2.50;;;;;;;11.50;87.13;101531.47;5034478;28;20482;-41
2021/12/31 07:23:43;;;;;;;9.95;2.80;;;;;;;11.51;86.97;101532.34;5052008;28;20025;-41
2021/12/31 07:26:08;;;;;;;8.25;2.75;;;;;;;11.50;87.14;101533.34;5051315;28;20033;-41
2021/12/31 07:28:33;;;;;;;10.50;2.80;;;;;;;11.50;87.09;101547.66;5051697;28;20759;-41
2021/12/31 07:31:00;;;;;;;6.47;2.30;;;;;;;11.49;87.01;101543.28;5051996;28;20117;-41
2021/12/31 07:33:25;;;;;;;10.85;3.03;;;;;;;11.49;87.16;101532.50;5048893;28;20539;-41
2021/12/31 07:35:51;;;;;;;4.40;2.60;;;;;;;11.51;86.79;101537.75;5031535;28;20033;-41
2021/12/31 07:38:20;;;;;;;5.40;2.50;;;;;;;11.51;86.87;101526.94;5032020;28;20037;-41
2021/12/31 07:40:47;;;;;;;5.47;2.72;;;;;;;11.47;86.97;101521.03;5051217;28;20033;-41
2021/12/31 07:43:13;;;;;;;9.85;2.95;;;;;;;11.47;86.84;101521.03;5051870;28;20028;-41
2021/12/31 07:45:39;;;;;;;7.28;2.88;;;;;;;11.47;86.95;101531.00;5047137;28;20184;-43
2021/12/31 07:48:05;;;;;;;7.22;2.55;;;;;;;11.47;86.99;101531.00;5031952;28;20033;-41
2021/12/31 07:50:31;;;;;;;6.45;3.03;;;;;;;11.44;87.09;101532.19;5035596;28;20034;-41
2021/12/31 07:52:56;;;;;;;5.38;2.83;;;;;;;11.42;86.97;101529.63;5033831;28;20033;-41
2021/12/31 07:55:22;;;;;;;6.72;3.10;;;;;;;11.42;87.07;101535.03;5054049;28;20025;-42
2021/12/31 07:57:47;;;;;;;5.45;2.30;;;;;;;11.43;86.89;101535.88;5054524;28;20128;-41
2021/12/31 08:00:13;;;;;;;6.32;2.35;;;;;;;11.41;86.99;101537.91;5052902;28;20062;-42
2021/12/31 08:02:39;;;;;;;4.28;2.72;;;;;;;11.40;87.45;101557.78;5039153;28;20442;-41
2021/12/31 08:05:05;;;;;;;9.30;2.70;;;;;;;11.39;87.46;101550.72;5069244;28;20033;-41
2021/12/31 08:07:30;;;;;;;8.20;2.92;;;;;;;11.37;87.46;101555.41;5038747;28;20080;-41
2021/12/31 08:09:55;;;;;;;4.32;2.47;;;;;;;11.35;87.62;101549.38;5042915;28;20037;-42
2021/12/31 08:12:21;;;;;;;7.40;3.08;;;;;;;11.35;87.44;101560.16;5064487;28;20401;-42
2021/12/31 08:14:46;;;;;;;4.95;2.60;;;;;;;11.33;87.65;101556.78;5045413;28;20025;-41
2021/12/31 08:17:12;;;;;;;5.30;2.80;;;;;;;11.32;87.77;101560.47;5039347;28;20120;-42
2021/12/31 08:19:37;;;;;;;5.97;3.00;;;;;;;11.33;87.67;101551.41;5054781;28;20449;-41
2021/12/31 08:22:02;;;;;;;9.27;2.85;;;;;;;11.34;87.24;101555.75;5040059;28;20036;-41
2021/12/31 08:24:28;;;;;;;5.95;2.75;;;;;;;11.34;87.37;101553.91;5054131;28;20377;-41
2021/12/31 08:26:53;;;;;;;6.75;2.97;;;;;;;11.36;87.25;101545.66;5044249;28;20033;-42
2021/12/31 08:29:18;;;;;;;10.15;2.80;;;;;;;11.35;87.38;101546.69;5034089;28;20087;-41
2021/12/31 08:31:44;;;;;;;8.52;3.15;;;;;;;11.34;87.27;101544.97;5044777;28;20039;-41
2021/12/31 08:34:10;;;;;;;13.48;3.22;;;;;;;11.32;87.49;101553.25;5033753;28;20108;-41
2021/12/31 08:36:36;;;;;;;10.52;3.10;;;;;;;11.35;87.73;101554.78;5033139;28;20009;-41
2021/12/31 08:39:04;;;;;;;8.85;3.30;;;;;;;11.34;87.34;101545.81;5038656;28;20473;-43
2021/12/31 08:41:29;;;;;;;8.27;3.20;;;;;;;11.33;87.55;101562.19;5039486;28;20036;-43
2021/12/31 08:43:54;;;;;;;10.02;3.60;;;;;;;11.31;87.80;101558.81;5053510;28;20017;-44
2021/12/31 08:46:20;;;;;;;9.90;2.63;;;;;;;11.33;87.58;101562.19;5045509;28;20087;-42
2021/12/31 08:48:45;;;;;;;8.32;2.90;;;;;;;11.31;87.71;101548.84;5033448;28;20033;-43
2021/12/31 08:51:10;;;;;;;7.90;3.10;;;;;;;11.30;87.67;101549.88;5033518;28;20022;-42
2021/12/31 08:53:36;;;;;;;6.97;2.78;;;;;;;11.32;87.49;101555.09;5036725;28;20053;-42
2021/12/31 08:56:01;;;;;;;7.00;2.72;;;;;;;11.32;87.67;101560.47;5033446;28;20054;-41
2021/12/31 08:58:26;;;;;;;8.13;3.38;;;;;;;11.33;87.70;101570.25;5040578;28;20036;-41
2021/12/31 09:00:52;;;;;;;9.32;3.15;;;;;;;11.37;87.33;101558.13;5027151;28;20033;-41
2021/12/31 09:03:17;;;;;;;8.13;2.90;;;;;;;11.41;87.12;101567.56;5047187;28;20163;-42
2021/12/31 09:05:42;;;;;;;4.65;2.42;;;;;;;11.42;87.31;101586.22;5041662;28;20116;-42
2021/12/31 09:08:08;;;;;;;9.02;2.88;;;;;;;11.42;87.26;101566.53;5040208;28;20065;-43
2021/12/31 09:10:33;;;;;;;8.32;2.70;;;;;;;11.47;86.93;101549.84;5048771;28;20079;-42
2021/12/31 09:12:59;;;;;;;10.45;3.33;;;;;;;11.48;86.78;101576.66;5047662;28;20052;-42
2021/12/31 09:15:24;;;;;;;6.63;2.70;;;;;;;11.50;86.76;101596.19;5034166;28;20397;-43
2021/12/31 09:17:49;;;;;;;7.10;2.75;;;;;;;11.52;86.80;101599.53;5039019;28;20400;-43
2021/12/31 09:20:15;;;;;;;6.95;2.83;;;;;;;11.53;86.67;101598.56;5049267;28;20099;-42
2021/12/31 09:22:40;;;;;;;9.70;3.03;;;;;;;11.52;86.86;101594.16;5052741;28;20099;-43
2021/12/31 09:25:06;;;;;;;7.93;3.33;;;;;;;11.52;86.45;101587.94;5047872;28;20412;-42
2021/12/31 09:27:31;;;;;;;8.52;2.88;;;;;;;11.53;86.43;101568.91;5052612;28;20035;-42
2021/12/31 09:29:57;;;;;;;7.63;2.72;;;;;;;11.53;86.59;101577.00;5052659;28;20052;-42
2021/12/31 09:32:22;;;;;;;10.75;2.67;;;;;;;11.54;86.60;101597.53;5052572;28;20025;-42
2021/12/31 09:34:48;;;;;;;3.50;2.15;;;;;;;11.54;86.40;101607.47;5051211;28;20028;-41
2021/12/31 09:37:14;;;;;;;8.57;2.50;;;;;;;11.57;86.40;101613.38;5052439;28;20025;-42
2021/12/31 09:39:40;;;;;;;7.00;2.83;;;;;;;11.57;86.42;101629.53;5052468;28;20531;-42
2021/12/31 09:42:07;;;;;;;7.90;3.13;;;;;;;11.59;86.40;101614.03;5035986;28;20036;-40
2021/12/31 09:44:34;;;;;;;10.63;3.10;;;;;;;11.62;86.00;101588.59;5030823;28;20118;-42
2021/12/31 09:46:59;;;;;;;6.43;2.60;;;;;;;11.64;86.03;101592.81;5042846;28;20051;-42
2021/12/31 09:49:25;;;;;;;5.15;2.55;;;;;;;11.72;85.92;101591.97;5032414;28;20120;-41
2021/12/31 09:51:50;;;;;;;6.05;2.60;;;;;;;11.76;85.58;101585.19;5038107;28;20016;-42
2021/12/31 09:54:21;;;;;;;9.65;2.63;;;;;;;11.83;85.21;101566.47;5051204;28;20056;-41
2021/12/31 09:56:47;;;;;;;6.03;3.17;;;;;;;11.85;84.95;101586.88;5051107;28;20067;-42
2021/12/31 09:59:14;;;;;;;9.38;2.67;;;;;;;11.84;85.08;101604.03;5050198;28;20123;-42
2021/12/31 10:01:46;;;;;;;3.90;2.20;;;;;;;11.85;85.05;101615.72;5049991;28;20060;-43
2021/12/31 10:04:11;;;;;;;9.48;2.83;;;;;;;11.85;85.21;101613.00;5045033;28;20037;-42
2021/12/31 10:06:37;;;;;;;7.03;2.55;;;;;;;11.85;85.32;101613.00;5051432;28;20035;-41
2021/12/31 10:09:03;;;;;;;9.50;2.55;;;;;;;11.85;85.00;101624.63;5041600;28;20055;-42
2021/12/31 10:11:28;;;;;;;8.07;2.78;;;;;;;11.88;85.11;101610.00;5039288;28;20029;-42
2021/12/31 10:13:54;;;;;;;9.98;2.65;;;;;;;11.90;84.81;101618.75;5042277;28;20109;-41
2021/12/31 10:16:22;;;;;;;7.57;2.72;;;;;;;11.93;84.52;101586.03;5051223;28;20044;-42
2021/12/31 10:18:47;;;;;;;6.53;2.88;;;;;;;11.94;84.44;101559.91;5038442;28;20083;-42
2021/12/31 10:21:12;;;;;;;8.25;2.70;;;;;;;11.99;84.65;101550.28;5049800;28;20040;-41
2021/12/31 10:23:38;;;;;;;9.07;2.80;;;;;;;12.04;84.10;101496.63;5049532;28;20485;-42
2021/12/31 10:26:10;;;;;;;5.90;2.97;;;;;;;11.98;84.12;101502.75;5051303;28;20029;-42
2021/12/31 10:28:36;;;;;;;9.30;2.75;;;;;;;11.98;84.48;101520.75;5048897;28;20043;-42
2021/12/31 10:31:12;;;;;;;12.57;3.00;;;;;;;11.94;84.70;101504.09;5036958;28;20025;-42
2021/12/31 10:33:43;;;;;;;11.98;2.97;;;;;;;11.95;84.48;101534.59;5043084;28;20365;-43
2021/12/31 10:36:08;;;;;;;10.55;3.10;;;;;;;11.99;84.53;101542.19;5039445;28;20484;-42
2021/12/31 10:38:39;;;;;;;15.25;3.63;;;;;;;12.14;84.14;101553.09;5036191;28;20120;-42
2021/12/31 10:41:05;;;;;;;9.93;2.90;;;;;;;12.35;83.16;101562.44;5039900;28;20025;-42
2021/12/31 10:43:30;;;;;;;9.52;2.85;;;;;;;12.66;81.90;101571.38;5036587;28;20477;-43
2021/12/31 10:46:16;;;;;;;8.10;3.03;;;;;;;12.87;80.53;101556.38;5049685;28;20161;-41
2021/12/31 10:48:43;;;;;;;11.07;3.08;;;;;;;12.69;81.24;101580.97;5040784;28;20040;-42
2021/12/31 10:51:12;;;;;;;11.32;4.03;;;;;;;12.61;81.51;101590.00;5029565;28;20160;-42
2021/12/31 10:53:38;;;;;;;13.35;3.30;;;;;;;12.69;81.49;101575.56;5031129;28;20116;-41
2021/12/31 10:56:07;;;;;;;11.32;2.80;;;;;;;12.74;81.21;101575.88;5029640;28;20053;-41
2021/12/31 10:58:33;;;;;;;9.77;3.20;;;;;;;12.78;81.01;101566.41;5031299;28;20152;-43
2021/12/31 11:00:59;;;;;;;7.30;3.17;;;;;;;12.76;81.08;101587.34;5033744;28;20445;-41
2021/12/31 11:03:24;;;;;;;9.20;3.08;;;;;;;12.64;81.41;101580.69;5044118;28;20029;-42
2021/12/31 11:05:50;;;;;;;8.38;3.10;;;;;;;12.52;81.59;101583.78;5047990;28;20087;-43
2021/12/31 11:08:15;;;;;;;10.00;3.33;;;;;;;12.46;83.22;101579.09;5051838;28;20029;-43
2021/12/31 11:10:41;;;;;;;13.10;3.17;;;;;;;12.30;85.14;101576.47;5034704;28;20358;-42
2021/12/31 11:13:11;;;;;;;9.38;3.88;;;;;;;12.18;87.21;101583.25;5034297;28;20132;-42
2021/12/31 11:15:37;;;;;;;12.60;3.83;;;;;;;12.14;86.17;101576.50;5034729;28;20025;-41
2021/12/31 11:18:02;;;;;;;18.10;3.35;;;;;;;12.07;86.49;101569.13;5037907;28;20033;-41